Map

Track Data

SID SEASON NUMBER BASIN SUBBASIN NAME ISO_TIME NATURE LAT LON WMO_WIND WMO_PRES WMO_AGENCY TRACK_TYPE DIST2LAND LANDFALL IFLAG USA_AGENCY USA_ATCF_ID USA_LAT USA_LON USA_RECORD USA_STATUS USA_WIND USA_PRES USA_SSHS USA_R34_NE USA_R34_SE USA_R34_SW USA_R34_NW USA_R50_NE USA_R50_SE USA_R50_SW USA_R50_NW USA_R64_NE USA_R64_SE USA_R64_SW USA_R64_NW USA_POCI USA_ROCI USA_RMW USA_EYE TOKYO_LAT TOKYO_LON TOKYO_GRADE TOKYO_WIND TOKYO_PRES TOKYO_R50_DIR TOKYO_R50_LONG TOKYO_R50_SHORT TOKYO_R30_DIR TOKYO_R30_LONG TOKYO_R30_SHORT TOKYO_LAND CMA_LAT CMA_LON CMA_CAT CMA_WIND CMA_PRES HKO_LAT HKO_LON HKO_CAT HKO_WIND HKO_PRES NEWDELHI_LAT NEWDELHI_LON NEWDELHI_GRADE NEWDELHI_WIND NEWDELHI_PRES NEWDELHI_CI NEWDELHI_DP NEWDELHI_POCI REUNION_LAT REUNION_LON REUNION_TYPE REUNION_WIND REUNION_PRES REUNION_TNUM REUNION_CI REUNION_RMW REUNION_R34_NE REUNION_R34_SE REUNION_R34_SW REUNION_R34_NW REUNION_R50_NE REUNION_R50_SE REUNION_R50_SW REUNION_R50_NW REUNION_R64_NE REUNION_R64_SE REUNION_R64_SW REUNION_R64_NW BOM_LAT BOM_LON BOM_TYPE BOM_WIND BOM_PRES BOM_TNUM BOM_CI BOM_RMW BOM_R34_NE BOM_R34_SE BOM_R34_SW BOM_R34_NW BOM_R50_NE BOM_R50_SE BOM_R50_SW BOM_R50_NW BOM_R64_NE BOM_R64_SE BOM_R64_SW BOM_R64_NW BOM_ROCI BOM_POCI BOM_EYE BOM_POS_METHOD BOM_PRES_METHOD NADI_LAT NADI_LON NADI_CAT NADI_WIND NADI_PRES WELLINGTON_LAT WELLINGTON_LON WELLINGTON_WIND WELLINGTON_PRES DS824_LAT DS824_LON DS824_STAGE DS824_WIND DS824_PRES TD9636_LAT TD9636_LON TD9636_STAGE TD9636_WIND TD9636_PRES TD9635_LAT TD9635_LON TD9635_WIND TD9635_PRES TD9635_ROCI NEUMANN_LAT NEUMANN_LON NEUMANN_CLASS NEUMANN_WIND NEUMANN_PRES MLC_LAT MLC_LON MLC_CLASS MLC_WIND MLC_PRES USA_GUST BOM_GUST BOM_GUST_PER REUNION_GUST REUNION_GUST_PER USA_SEAHGT USA_SEARAD_NE USA_SEARAD_SE USA_SEARAD_SW USA_SEARAD_NW STORM_SPEED STORM_DIR
1991013S04096 1991 2 SI WA BELLA 1991-01-13 00:00:00 TS -4.40000 95.5000 main 484 484 O___________O_ jtwc_sh SH081991 -4.40000 95.5000 20 -1 -4.40000 95.5000 TC 20 2 0
1991013S04096 1991 2 SI WA BELLA 1991-01-13 03:00:00 TS -4.49000 95.5000 main 491 491 P___________P_ SH081991 -4.49000 95.5000 20 -1 -4.49000 95.5000 TC 20 2 172
1991013S04096 1991 2 SI WA BELLA 1991-01-13 06:00:00 TS -4.60000 95.5000 main 498 498 O___________O_ jtwc_sh SH081991 -4.60000 95.5000 20 -1 -4.60000 95.5000 TC 20 3 175
1991013S04096 1991 2 SI WA BELLA 1991-01-13 09:00:00 TS -4.74250 95.5000 main 505 505 P___________P_ SH081991 -4.74250 95.5000 20 -1 -4.74250 95.5000 TC 20 3 0
1991013S04096 1991 2 SI WA BELLA 1991-01-13 12:00:00 TS -4.90000 95.5000 main 520 520 O___________O_ jtwc_sh SH081991 -4.90000 95.5000 20 -1 -4.90000 95.5000 TC 20 3 0
1991013S04096 1991 2 SI WA BELLA 1991-01-13 15:00:00 TS -5.05750 95.5075 main 536 536 P___________P_ SH081991 -5.05750 95.5075 22 -1 -5.05750 95.5075 TC 22 3 0
1991013S04096 1991 2 SI WA BELLA 1991-01-13 18:00:00 TS -5.20000 95.5000 main 544 544 O___________O_ jtwc_sh SH081991 -5.20000 95.5000 25 -1 -5.20000 95.5000 TC 25 3 189
1991013S04096 1991 2 SI WA BELLA 1991-01-13 21:00:00 TS -5.30750 95.4650 main 552 552 P___________P_ SH081991 -5.30750 95.4650 25 -1 -5.30750 95.4650 TC 25 2 207
1991013S04096 1991 2 SI WA BELLA 1991-01-14 00:00:00 TS -5.40000 95.4000 main 568 568 O___________O_ jtwc_sh SH081991 -5.40000 95.4000 25 -1 -5.40000 95.4000 TC 25 2 220
1991013S04096 1991 2 SI WA BELLA 1991-01-14 03:00:00 TS -5.50000 95.3075 main 584 584 P___________P_ SH081991 -5.50000 95.3075 25 -1 -5.50000 95.3075 TC 25 3 225
1991013S04096 1991 2 SI WA BELLA 1991-01-14 06:00:00 TS -5.60000 95.2000 main 599 599 O___________O_ jtwc_sh SH081991 -5.60000 95.2000 25 -1 -5.60000 95.2000 TC 25 3 225
1991013S04096 1991 2 SI WA BELLA 1991-01-14 09:00:00 TS -5.69999 95.1075 main 615 615 P___________P_ SH081991 -5.69999 95.1075 25 -1 -5.69999 95.1075 TC 25 3 225
1991013S04096 1991 2 SI WA BELLA 1991-01-14 12:00:00 TS -5.80000 95.0000 main 631 631 O___________O_ jtwc_sh SH081991 -5.80000 95.0000 25 -1 -5.80000 95.0000 TC 25 3 230
1991013S04096 1991 2 SI WA BELLA 1991-01-14 15:00:00 TS -5.89999 94.8725 main 647 647 P___________P_ SH081991 -5.89999 94.8725 25 -1 -5.89999 94.8725 TC 25 4 236
1991013S04096 1991 2 SI WA BELLA 1991-01-14 18:00:00 TS -6.00000 94.7000 main 670 670 O___________O_ jtwc_sh SH081991 -6.00000 94.7000 25 -1 -6.00000 94.7000 TC 25 5 243
1991013S04096 1991 2 SI WA BELLA 1991-01-14 21:00:00 TS -6.10751 94.4650 main 694 694 P___________P_ SH081991 -6.10751 94.4650 22 -1 -6.10751 94.4650 TC 22 5 248
1991013S04096 1991 2 SI WA BELLA 1991-01-15 00:00:00 TS -6.20000 94.2000 main 725 725 O___________O_ jtwc_sh SH081991 -6.20000 94.2000 20 -1 -6.20000 94.2000 TC 20 5 253
1991013S04096 1991 2 SI WA BELLA 1991-01-15 03:00:00 TS -6.25748 93.9575 main 749 749 P___________P_ SH081991 -6.25748 93.9575 20 -1 -6.25748 93.9575 TC 20 5 259
1991013S04096 1991 2 SI WA BELLA 1991-01-15 06:00:00 TS -6.30000 93.7000 main 773 773 O___________O_ jtwc_sh SH081991 -6.30000 93.7000 20 -1 -6.30000 93.7000 TC 20 5 260
1991013S04096 1991 2 SI WA BELLA 1991-01-15 09:00:00 TS -6.34998 93.4150 main 799 799 P___________P_ SH081991 -6.34998 93.4150 17 -1 -6.34998 93.4150 TC 17 6 260
1991013S04096 1991 2 SI WA BELLA 1991-01-15 12:00:00 TS -6.40000 93.1000 main 831 831 O___________O_ jtwc_sh SH081991 -6.40000 93.1000 15 -1 -6.40000 93.1000 TC 15 7 263
1991013S04096 1991 2 SI WA BELLA 1991-01-15 15:00:00 TS -6.43497 92.7650 main 857 857 P___________P_ SH081991 -6.43497 92.7650 15 -1 -6.43497 92.7650 TC 15 7 262
1991013S04096 1991 2 SI WA BELLA 1991-01-15 18:00:00 TS -6.50000 92.4000 main 899 899 O___________O_ jtwc_sh SH081991 -6.50000 92.4000 15 -1 -6.50000 92.4000 TC 15 8 255
1991013S04096 1991 2 SI WA BELLA 1991-01-15 21:00:00 TS -6.63502 91.9925 main 942 942 P___________P_ SH081991 -6.63502 91.9925 15 -1 -6.63502 91.9925 TC 15 9 249
1991013S04096 1991 2 SI WA BELLA 1991-01-16 00:00:00 TS -6.80000 91.6000 main 991 991 O___________O_ jtwc_sh SH081991 -6.80000 91.6000 15 -1 -6.80000 91.6000 TC 15 8 246
1991013S04096 1991 2 SI WA BELLA 1991-01-16 03:00:00 TS -6.94996 91.2775 main 1025 1025 P___________P_ SH081991 -6.94996 91.2775 15 -1 -6.94996 91.2775 TC 15 7 243
1991013S04096 1991 2 SI WA BELLA 1991-01-16 06:00:00 TS -7.10000 91.0000 main 1065 1065 O___________O_ jtwc_sh SH081991 -7.10000 91.0000 15 -1 -7.10000 91.0000 TC 15 6 240
1991013S04096 1991 2 SI WA BELLA 1991-01-16 09:00:00 TS -7.25747 90.7425 main 1105 1105 P___________P_ SH081991 -7.25747 90.7425 15 -1 -7.25747 90.7425 TC 15 6 239
1991013S04096 1991 2 SI WA BELLA 1991-01-16 12:00:00 TS -7.40000 90.5000 main 1129 1129 O___________O_ jtwc_sh SH081991 -7.40000 90.5000 15 -1 -7.40000 90.5000 TC 15 6 243
1991013S04096 1991 2 SI WA BELLA 1991-01-16 15:00:00 TS -7.50750 90.2425 main 1163 1163 P___________P_ SH081991 -7.50750 90.2425 15 -1 -7.50750 90.2425 TC 15 5 248
1991013S04096 1991 2 SI WA BELLA 1991-01-16 18:00:00 TS -7.60000 90.0000 main 1187 1187 O___________O_ jtwc_sh SH081991 -7.60000 90.0000 15 -1 -7.60000 90.0000 TC 15 5 247
1991013S04096 1991 2 SI MM BELLA 1991-01-16 21:00:00 TS -7.69248 89.7925 main 1212 1212 P___________P_ SH081991 -7.69248 89.7925 15 -1 -7.69248 89.7925 TC 15 4 243
1991013S04096 1991 2 SI MM BELLA 1991-01-17 00:00:00 TS -7.80000 89.6000 main 1237 1237 O___________O_ jtwc_sh SH081991 -7.80000 89.6000 15 -1 -7.80000 89.6000 TC 15 5 235
1991013S04096 1991 2 SI MM BELLA 1991-01-17 03:00:00 TS -7.95747 89.4150 main 1267 1267 P___________P_ SH081991 -7.95747 89.4150 17 -1 -7.95747 89.4150 TC 17 5 233
1991013S04096 1991 2 SI MM BELLA 1991-01-17 06:00:00 TS -8.10000 89.2000 main 1292 1292 O___________O_ jtwc_sh SH081991 -8.10000 89.2000 20 -1 -8.10000 89.2000 TC 20 5 248
1991013S04096 1991 2 SI MM BELLA 1991-01-17 09:00:00 TS -8.15749 88.9224 main 1326 1326 P___________P_ SH081991 -8.15749 88.9224 20 -1 -8.15749 88.9224 TC 20 6 260
1991013S04096 1991 2 SI MM BELLA 1991-01-17 12:00:00 TS -8.20000 88.6000 main 1354 1354 O___________O_ jtwc_sh SH081991 -8.20000 88.6000 20 -1 -8.20000 88.6000 TC 20 7 260
1991013S04096 1991 2 SI MM BELLA 1991-01-17 15:00:00 TS -8.27751 88.2500 main 1397 1397 P___________P_ SH081991 -8.27751 88.2500 20 -1 -8.27751 88.2500 TC 20 7 254
1991013S04096 1991 2 SI MM BELLA 1991-01-17 18:00:00 TS -8.40000 87.9000 main 1431 1431 O___________O_ jtwc_sh SH081991 -8.40000 87.9000 20 -1 -8.40000 87.9000 TC 20 7 244
1991013S04096 1991 2 SI MM BELLA 1991-01-17 21:00:00 TS -8.59242 87.6075 main 1471 1471 P___________P_ SH081991 -8.59242 87.6075 20 -1 -8.59242 87.6075 TC 20 7 236
1991013S04096 1991 2 SI MM BELLA 1991-01-18 00:00:00 TS -8.80000 87.3000 main 1511 1511 O___________O_ jtwc_sh SH081991 -8.80000 87.3000 20 -1 -8.80000 87.3000 TC 20 8 242
1991013S04096 1991 2 SI MM BELLA 1991-01-18 03:00:00 TS -8.96502 86.9075 main 1560 1560 P___________P_ SH081991 -8.96502 86.9075 20 -1 -8.96502 86.9075 TC 20 8 249
1991013S04096 1991 2 SI MM BELLA 1991-01-18 06:00:00 TS -9.10000 86.5000 main 1604 1604 O___________O_ jtwc_sh SH081991 -9.10000 86.5000 20 -1 -9.10000 86.5000 TC 20 8 252
1991013S04096 1991 2 SI MM BELLA 1991-01-18 09:00:00 TS -9.21496 86.1350 main 1647 1647 P___________P_ SH081991 -9.21496 86.1350 20 -1 -9.21496 86.1350 TC 20 5 250
1991013S04096 1991 2 SI MM BELLA 1991-01-18 12:00:00 TS -9.28889 85.9889 main 1662 1662 O____O______O_ jtwc_sh SH081991 -9.30000 85.8000 20 -1 -9.20000 87.5000 2 20 1006 9.90000 1.50000 -9.30000 85.8000 TC 20 4 243
1991013S04096 1991 2 SI MM BELLA 1991-01-18 15:00:00 TS -9.40851 85.7571 main 1687 1687 P____P______P_ SH081991 -9.36493 85.5000 22 -1 -9.58282 86.7854 2 20 1005 -9.36493 85.5000 TC 22 6 245
1991013S04096 1991 2 SI MM BELLA 1991-01-18 18:00:00 TS -9.53636 85.4454 main 1731 1731 O____O______O_ jtwc_sh SH081991 -9.40000 85.2000 25 -1 -9.90000 86.1000 2 20 1004 9.90000 1.50000 -9.40000 85.2000 TC 25 7 252
1991013S04096 1991 2 SI MM BELLA 1991-01-18 21:00:00 TS -9.63410 85.0666 main 1765 1765 P____P______P_ SH081991 -9.39996 84.8650 25 -1 -10.1024 85.4699 2 20 1003 -9.39996 84.8650 TC 25 8 261
1991013S04096 1991 2 SI MM BELLA 1991-01-19 00:00:00 TS -9.66667 84.6333 main 1803 1793 O____O______O_ jtwc_sh SH081991 -9.40000 84.5000 25 -1 -10.2000 84.9000 2 20 1002 9.90000 2.00000 -9.40000 84.5000 TC 25 8 265
1991013S04096 1991 2 SI MM BELLA 1991-01-19 03:00:00 TS -9.70483 84.2250 main 1793 1783 P____P______P_ SH081991 -9.44228 84.1525 25 -1 -10.2299 84.3699 2 20 1002 -9.44228 84.1525 TC 25 9 266
1991013S04096 1991 2 SI MM BELLA 1991-01-19 06:00:00 TS -9.73333 83.7667 main 1783 1773 O____O______O_ jtwc_sh SH081991 -9.50000 83.7000 25 -1 -10.2000 83.9000 2 20 1002 9.90000 2.00000 -9.50000 83.7000 TC 25 11 267
1991013S04096 1991 2 SI MM BELLA 1991-01-19 09:00:00 TS -9.75532 83.1167 main 1780 1773 P____P______P_ SH081991 -9.55801 82.9401 27 -1 -10.1499 83.4700 2 22 1001 -9.55801 82.9401 TC 27 12 268
1991013S04096 1991 2 SI MM BELLA 1991-01-19 12:00:00 TS -9.76667 82.5667 main 1773 1770 O____O______O_ jtwc_sh SH081991 -9.60000 82.3000 30 -1 -10.1000 83.1000 2 24 1000 9.90000 2.00000 -9.60000 82.3000 TC 30 7 270
1991013S04096 1991 2 SI MM BELLA 1991-01-19 15:00:00 TS -9.75149 82.4116 main 1770 1770 P____P______P_ SH081991 -9.58476 82.2325 30 -1 -10.0850 82.7700 2 24 1000 -9.58476 82.2325 TC 30 2 270
1991013S04096 1991 2 SI MM BELLA 1991-01-19 18:00:00 TS -9.76667 82.3667 main 1770 1767 O____O______O_ jtwc_sh SH081991 -9.60000 82.3000 30 -1 -10.1000 82.5000 2 24 1000 9.90000 2.00000 -9.60000 82.3000 TC 30 3 251
1991013S04096 1991 2 SI MM BELLA 1991-01-19 21:00:00 TS -9.85089 82.1184 main 1778 1777 P____P______P_ SH081991 -9.71259 82.0501 30 -1 -10.1275 82.2550 2 24 1000 -9.71259 82.0501 TC 30 5 243
1991013S04096 1991 2 SI MM BELLA 1991-01-20 00:00:00 TS -10.0000 81.9000 main 1787 1787 O____O______O_ jtwc_sh SH081991 -9.90000 81.8000 30 -1 -10.2000 82.1000 2 24 1000 9.90000 2.00000 -9.90000 81.8000 TC 30 4 219
1991013S04096 1991 2 SI MM BELLA 1991-01-20 03:00:00 TS -10.1816 81.8475 main 1808 1808 P____P______P_ SH081991 -10.1200 81.7550 30 -1 -10.3049 82.0326 2 24 1000 -10.1200 81.7550 TC 30 4 179
1991013S04096 1991 2 SI MM BELLA 1991-01-20 06:00:00 TS -10.4333 81.9000 main 1832 1832 O____O______O_ jtwc_sh SH081991 -10.4000 81.8000 30 -1 -10.5000 82.1000 2 24 1000 9.90000 2.00000 -10.4000 81.8000 TC 30 6 165
1991013S04096 1991 2 SI MM BELLA 1991-01-20 09:00:00 TS -10.7559 81.9991 main 1877 1877 P____P______P_ SH081991 -10.7275 81.8276 30 -1 -10.8126 82.3423 2 24 1000 -10.7275 81.8276 TC 30 7 162
1991013S04096 1991 2 SI MM BELLA 1991-01-20 12:00:00 TS -11.1333 82.1333 main 1912 1912 O____O______O_ jtwc_sh SH081991 -11.1000 81.9000 30 -1 -11.2000 82.6000 2 24 1000 9.90000 2.00000 -11.1000 81.9000 TC 30 8 162
1991013S04096 1991 2 SI MM BELLA 1991-01-20 15:00:00 TS -11.5308 82.2550 main 1958 1958 P____P______P_ SH081991 -11.5000 82.0350 30 -1 -11.5925 82.6951 2 24 1000 -11.5000 82.0350 TC 30 8 164
1991013S04096 1991 2 SI MM BELLA 1991-01-20 18:00:00 TS -11.9333 82.3667 main 2004 2004 O____O______O_ jtwc_sh SH081991 -11.9000 82.2000 30 -1 -12.0000 82.7000 2 24 1000 9.90000 2.00000 -11.9000 82.2000 TC 30 8 165
1991013S04096 1991 2 SI MM BELLA 1991-01-20 21:00:00 TS -12.3025 82.4600 main 2049 2049 P____P______P_ SH081991 -12.2575 82.3575 30 -1 -12.3925 82.6650 2 24 1000 -12.2575 82.3575 TC 30 8 167
1991013S04096 1991 2 SI MM BELLA 1991-01-21 00:00:00 TS -12.6667 82.5333 main 2094 2094 O____O______O_ jtwc_sh SH081991 -12.6000 82.5000 30 -1 -12.8000 82.6000 2 24 1000 9.90000 2.00000 -12.6000 82.5000 TC 30 8 169
1991013S04096 1991 2 SI MM BELLA 1991-01-21 03:00:00 TS -13.0575 82.6058 main 2140 2140 P____P______P_ SH081991 -12.9575 82.6300 30 -1 -13.2575 82.5575 2 24 1000 -12.9575 82.6300 TC 30 8 173
1991013S04096 1991 2 SI MM BELLA 1991-01-21 06:00:00 TS -13.4333 82.6333 main 2173 2173 O____O______O_ jtwc_sh SH081991 -13.3000 82.7000 30 -1 -13.7000 82.5000 2 24 1000 9.90000 2.00000 -13.3000 82.7000 TC 30 7 181
1991013S04096 1991 2 SI MM BELLA 1991-01-21 09:00:00 TS -13.7750 82.5917 main 2218 2218 P____P______P_ SH081991 -13.6225 82.6875 30 -1 -14.0800 82.4000 2 24 1000 -13.6225 82.6875 TC 30 7 192
1991013S04096 1991 2 SI MM BELLA 1991-01-21 12:00:00 TS -14.0667 82.5000 main 2250 2250 O____O______O_ jtwc_sh SH081991 -13.9000 82.6000 30 -1 -14.4000 82.3000 2 24 1000 9.90000 2.00000 -13.9000 82.6000 TC 30 6 199
1991013S04096 1991 2 SI MM BELLA 1991-01-21 15:00:00 TS -14.3308 82.3933 main 2271 2271 P____P______P_ SH081991 -14.1375 82.4800 30 -1 -14.7175 82.2200 2 24 1000 -14.1375 82.4800 TC 30 5 208
1991013S04096 1991 2 SI MM BELLA 1991-01-21 18:00:00 TS -14.5000 82.2667 main 2293 2292 O____O______O_ jtwc_sh SH081991 -14.3000 82.3000 30 -1 -14.9000 82.2000 2 24 1000 9.90000 2.00000 -14.3000 82.3000 TC 30 3 229
1991013S04096 1991 2 SI MM BELLA 1991-01-21 21:00:00 TS -14.5400 82.1458 main 2291 2290 P____P______P_ SH081991 -14.3725 82.0649 30 -1 -14.8750 82.3076 2 24 1000 -14.3725 82.0649 TC 30 3 270
1991013S04096 1991 2 SI MM BELLA 1991-01-22 00:00:00 TS -14.5000 82.0000 main 2290 2289 O____O______O_ jtwc_sh SH081991 -14.4000 81.8000 30 -1 -14.7000 82.4000 2 24 1000 9.90000 2.00000 -14.4000 81.8000 TC 30 3 284
1991013S04096 1991 2 SI MM BELLA 1991-01-22 03:00:00 TS -14.4625 81.8225 main 2289 2276 P____P______P_ SH081991 -14.4574 81.5575 30 -1 -14.4725 82.3525 2 24 1000 -14.4574 81.5575 TC 30 4 284
1991013S04096 1991 2 SI MM BELLA 1991-01-22 06:00:00 TS -14.4000 81.6000 main 2276 2264 O____O______O_ jtwc_sh SH081991 -14.5000 81.3000 30 -1 -14.2000 82.2000 2 24 1000 9.90000 2.00000 -14.5000 81.3000 TC 30 5 287
1991013S04096 1991 2 SI MM BELLA 1991-01-22 09:00:00 TS -14.3192 81.3291 main 2264 2252 P____P______P_ SH081991 -14.5150 81.0000 30 -1 -13.9275 81.9874 2 26 998 -14.5150 81.0000 TC 30 6 287
1991013S04096 1991 2 SI MM BELLA 1991-01-22 12:00:00 TS -14.2333 81.0333 main 2252 2251 O____O______O_ jtwc_sh SH081991 -14.5000 80.7000 30 -1 -13.7000 81.7000 2 28 997 9.90000 2.50000 -14.5000 80.7000 TC 30 6 287
1991013S04096 1991 2 SI MM BELLA 1991-01-22 15:00:00 TS -14.1491 80.7550 main 2240 2240 P____P______P_ SH081991 -14.4499 80.4425 30 -1 -13.5474 81.3799 2 28 997 -14.4499 80.4425 TC 30 6 284
1991013S04096 1991 2 SI MM BELLA 1991-01-22 18:00:00 TS -14.1000 80.4667 main 2240 2240 O____O______O_ jtwc_sh SH081991 -14.4000 80.2000 30 -1 -13.5000 81.0000 2 28 997 9.90000 2.50000 -14.4000 80.2000 TC 30 6 273
1991013S04096 1991 2 SI MM BELLA 1991-01-22 21:00:00 TS -14.1183 80.1650 main 2241 2241 P____P______P_ SH081991 -14.3999 79.9650 32 -1 -13.5550 80.5650 2 28 997 -14.3999 79.9650 TC 32 6 264
1991013S04096 1991 2 SI MM BELLA 1991-01-23 00:00:00 TS -14.1667 79.8333 main 2253 2253 O____O______O_ jtwc_sh SH081991 -14.4000 79.7000 35 0 -13.7000 80.1000 2 28 997 9.90000 2.50000 -14.4000 79.7000 TC 35 7 263
1991013S04096 1991 2 SI MM BELLA 1991-01-23 03:00:00 TS -14.2049 79.4700 main 2255 2255 P____P______P_ SH081991 -14.3574 79.3800 35 0 -13.8999 79.6501 2 28 997 -14.3574 79.3800 TC 35 7 265
1991013S04096 1991 2 SI MM BELLA 1991-01-23 06:00:00 TS -14.2333 79.0667 28 997 reunion main 2257 2257 O____O______O_ jtwc_sh SH081991 -14.3000 79.0000 35 0 -14.1000 79.2000 2 28 997 9.90000 2.50000 -14.3000 79.0000 TC 35 8 268
1991013S04096 1991 2 SI MM BELLA 1991-01-23 09:00:00 TS -14.2333 78.6291 main 2262 2262 P____P______P_ SH081991 -14.2424 78.5725 35 0 -14.2150 78.7424 2 28 997 -14.2424 78.5725 TC 35 9 270
1991013S04096 1991 2 SI MM BELLA 1991-01-23 12:00:00 TS -14.2333 78.1667 28 997 reunion main 2267 2215 O____O______O_ jtwc_sh SH081991 -14.2000 78.1000 35 0 -14.3000 78.3000 2 28 997 9.90000 2.50000 -14.2000 78.1000 TC 35 9 268
1991013S04096 1991 2 SI MM BELLA 1991-01-23 15:00:00 TS -14.2690 77.7150 main 2215 2174 P____P______P_ SH081991 -14.1999 77.6151 37 0 -14.4073 77.9150 2 28 997 -14.1999 77.6151 TC 37 9 266
1991013S04096 1991 2 SI MM BELLA 1991-01-23 18:00:00 TS -14.3000 77.2333 28 997 reunion main 2164 2114 O____O______O_ jtwc_sh SH081991 -14.2000 77.1000 40 0 -14.5000 77.5000 2 28 997 9.90000 2.50000 -14.2000 77.1000 TC 40 10 269
1991013S04096 1991 2 SI MM BELLA 1991-01-23 21:00:00 TS -14.2783 76.7007 main 2114 2064 P____P______P_ SH081991 -14.1499 76.5574 40 0 -14.5349 76.9872 2 28 997 -14.1499 76.5574 TC 40 11 272
1991013S04096 1991 2 SI MM BELLA 1991-01-24 00:00:00 TS -14.2667 76.1333 28 997 reunion main 2054 2004 O____O______O_ jtwc_sh SH081991 -14.1000 76.0000 40 0 -14.6000 76.4000 2 28 997 9.90000 2.50000 -14.1000 76.0000 TC 40 11 268
1991013S04096 1991 2 SI MM BELLA 1991-01-24 03:00:00 TS -14.3132 75.5575 main 2004 1940 P____P______P_ SH081991 -14.0848 75.4575 42 0 -14.7700 75.7575 2 28 997 -14.0848 75.4575 TC 42 11 263
1991013S04096 1991 2 SI MM BELLA 1991-01-24 06:00:00 TS -14.4000 74.9667 28 997 reunion main 1940 1876 O____O______O_ jtwc_sh SH081991 -14.1000 74.9000 45 0 -15.0000 75.1000 2 28 997 9.90000 2.50000 -14.1000 74.9000 TC 45 12 260
1991013S04096 1991 2 SI MM BELLA 1991-01-24 09:00:00 TS -14.5240 74.3743 main 1876 1812 P____P______P_ SH081991 -14.1425 74.3000 45 0 -15.2870 74.5228 2 28 997 -14.1425 74.3000 TC 45 12 259
1991013S04096 1991 2 SI MM BELLA 1991-01-24 12:00:00 TS -14.6333 73.7667 28 997 reunion main 1812 1748 O____O______O_ jtwc_sh SH081991 -14.2000 73.7000 45 0 -15.5000 73.9000 2 28 997 9.90000 2.50000 -14.2000 73.7000 TC 45 12 263
1991013S04096 1991 2 SI MM BELLA 1991-01-24 15:00:00 TS -14.6649 73.1407 main 1738 1679 P____P______P_ SH081991 -14.2423 73.1424 45 0 -15.5099 73.1373 2 28 997 -14.2423 73.1424 TC 45 12 268
1991013S04096 1991 2 SI MM BELLA 1991-01-24 18:00:00 TS -14.6667 72.5000 28 997 reunion main 1679 1620 O____O______O_ jtwc_sh SH081991 -14.3000 72.6000 45 0 -15.4000 72.3000 2 28 997 9.90000 2.50000 -14.3000 72.6000 TC 45 13 269
1991013S04096 1991 2 SI MM BELLA 1991-01-24 21:00:00 TS -14.6783 71.8424 main 1610 1552 P____P______P_ SH081991 -14.3924 72.0500 45 0 -15.2501 71.4272 2 30 995 -14.3924 72.0500 TC 45 13 268
1991013S04096 1991 2 SI MM BELLA 1991-01-25 00:00:00 TS -14.7000 71.2000 32 994 reunion main 1552 1494 O____O______O_ jtwc_sh SH081991 -14.5000 71.5000 45 0 -15.1000 70.6000 2 32 994 9.90000 2.50000 -14.5000 71.5000 TC 45 12 267
1991013S04096 1991 2 SI MM BELLA 1991-01-25 03:00:00 TS -14.7398 70.5992 main 1494 1441 P____P______P_ SH081991 -14.5924 70.9499 42 0 -15.0347 69.8977 2 32 994 -14.5924 70.9499 TC 42 11 265
1991013S04096 1991 2 SI MM BELLA 1991-01-25 06:00:00 TS -14.8000 70.0333 32 994 reunion main 1431 1378 O____O______O_ jtwc_sh SH081991 -14.7000 70.4000 40 0 -15.0000 69.3000 2 32 994 9.90000 2.50000 -14.7000 70.4000 TC 40 11 263
1991013S04096 1991 2 SI MM BELLA 1991-01-25 09:00:00 TS -14.8757 69.4825 main 1378 1326 P____P______P_ SH081991 -14.8425 69.8350 40 0 -14.9422 68.7775 2 32 994 -14.8425 69.8350 TC 40 10 261
1991013S04096 1991 2 SI MM BELLA 1991-01-25 12:00:00 TS -14.9667 68.9667 32 994 reunion main 1326 1273 O____O______O_ jtwc_sh SH081991 -15.0000 69.3000 40 0 -14.9000 68.3000 3 32 994 9.90000 3.00000 -15.0000 69.3000 TC 40 10 259
1991013S04096 1991 2 SI MM BELLA 1991-01-25 15:00:00 TS -15.0566 68.4799 main 1273 1230 P____P______P_ SH081991 -15.1499 68.8274 40 0 -14.8700 67.7849 3 34 992 -15.1499 68.8274 TC 40 9 257
1991013S04096 1991 2 SI MM BELLA 1991-01-25 18:00:00 TS -15.1667 68.0333 36 991 reunion main 1221 1177 O____O______O_ jtwc_sh SH081991 -15.3000 68.4000 40 0 -14.9000 67.3000 3 36 991 9.90000 3.00000 -15.3000 68.4000 TC 40 9 254
1991013S04096 1991 2 SI MM BELLA 1991-01-25 21:00:00 TS -15.2967 67.5908 main 1177 1129 P____P______P_ SH081991 -15.4425 67.9625 40 0 -15.0050 66.8476 3 36 991 -15.4425 67.9625 TC 40 8 249
1991013S04096 1991 2 SI MM BELLA 1991-01-26 00:00:00 TS -15.4667 67.2333 36 991 reunion main 1129 1100 O____O______O_ jtwc_sh SH081991 -15.6000 67.6000 40 0 -15.2000 66.5000 3 36 991 9.90000 3.00000 -15.6000 67.6000 TC 40 7 235
1991013S04096 1991 2 SI MM BELLA 1991-01-26 03:00:00 TS -15.6924 67.0075 main 1100 1080 P____P______P_ SH081991 -15.7999 67.3624 40 0 -15.4774 66.2975 3 36 991 -15.7999 67.3624 TC 40 6 217
1991013S04096 1991 2 SI MM BELLA 1991-01-26 06:00:00 TS -15.9333 66.8667 36 991 reunion main 1080 1050 O____O______O_ jtwc_sh SH081991 -16.0000 67.2000 40 0 -15.8000 66.2000 3 36 991 9.90000 3.00000 -16.0000 67.2000 TC 40 5 211
1991013S04096 1991 2 SI MM BELLA 1991-01-26 09:00:00 TS -16.1458 66.7275 main 1050 1030 P____P______P_ SH081991 -16.1575 67.0275 40 0 -16.1225 66.1275 3 36 991 -16.1575 67.0275 TC 40 5 209
1991013S04096 1991 2 SI MM BELLA 1991-01-26 12:00:00 TS -16.3333 66.6333 36 991 reunion main 1030 1020 O____O______O_ jtwc_sh SH081991 -16.3000 66.9000 40 0 -16.4000 66.1000 3 36 991 9.90000 3.00000 -16.3000 66.9000 TC 40 4 199
1991013S04096 1991 2 SI MM BELLA 1991-01-26 15:00:00 TS -16.4983 66.5999 main 1020 1016 P____P______P_ SH081991 -16.4575 66.8499 40 0 -16.5800 66.1000 3 38 989 -16.4575 66.8499 TC 40 3 192
1991013S04096 1991 2 SI MM BELLA 1991-01-26 18:00:00 TS -16.6333 66.5667 41 987 reunion main 1016 1001 O____O______O_ jtwc_sh SH081991 -16.6000 66.8000 40 0 -16.7000 66.1000 3 41 987 9.90000 3.50000 -16.6000 66.8000 TC 40 3 209
1991013S04096 1991 2 SI MM BELLA 1991-01-26 21:00:00 TS -16.7333 66.4600 main 1001 977 P____P______P_ SH081991 -16.7000 66.6650 42 0 -16.8000 66.0500 3 42 985 -16.7000 66.6650 TC 42 3 228
1991013S04096 1991 2 SI MM BELLA 1991-01-27 00:00:00 TS -16.8333 66.3333 44 984 reunion main 977 958 O____O______O_ jtwc_sh SH081991 -16.8000 66.5000 45 0 -16.9000 66.0000 3 44 984 9.90000 3.50000 -16.8000 66.5000 TC 45 3 219
1991013S04096 1991 2 SI MM BELLA 1991-01-27 03:00:00 TS -16.9933 66.2408 main 958 944 P____P______P_ SH081991 -16.9575 66.3500 47 0 -17.0650 66.0225 3 44 984 -16.9575 66.3500 TC 47 4 212
1991013S04096 1991 2 SI MM BELLA 1991-01-27 06:00:00 TS -17.1333 66.1333 44 984 reunion main 944 930 O____O______O_ jtwc_sh SH081991 -17.1000 66.2000 50 0 -17.2000 66.0000 3 44 984 9.90000 3.50000 -17.1000 66.2000 TC 50 3 233
1991013S04096 1991 2 SI MM BELLA 1991-01-27 09:00:00 TS -17.1867 65.9766 main 930 910 P____P______P_ SH081991 -17.1650 66.0574 52 0 -17.2301 65.8150 3 46 982 -17.1650 66.0574 TC 52 3 258
1991013S04096 1991 2 SI MM BELLA 1991-01-27 12:00:00 TS -17.2000 65.8000 48 980 reunion main 910 891 O____O______O_ jtwc_sh SH081991 -17.2000 65.9000 55 0 -17.2000 65.6000 3 48 980 9.90000 3.50000 -17.2000 65.9000 TC 55 3 264
1991013S04096 1991 2 SI MM BELLA 1991-01-27 15:00:00 TS -17.2192 65.6283 main 891 881 P____P______P_ SH081991 -17.2500 65.7000 57 0 -17.1575 65.4850 3 50 978 -17.2500 65.7000 TC 57 3 264
1991013S04096 1991 2 SI MM BELLA 1991-01-27 18:00:00 TS -17.2333 65.4667 52 976 reunion main 881 857 O____O______O_ jtwc_sh SH081991 -17.3000 65.5000 60 0 -17.1000 65.4000 3 52 976 9.90000 4.00000 -17.3000 65.5000 TC 60 3 263
1991013S04096 1991 2 SI MM BELLA 1991-01-27 21:00:00 TS -17.2550 65.3333 main 857 848 P____P______P_ SH081991 -17.3650 65.3425 62 0 -17.0350 65.3150 3 52 976 -17.3650 65.3425 TC 62 3 263
1991013S04096 1991 2 SI MM BELLA 1991-01-28 00:00:00 TS -17.2667 65.2000 52 976 reunion main 848 838 O____O______O_ jtwc_sh SH081991 -17.4000 65.2000 65 1 -17.0000 65.2000 3 52 976 9.90000 4.00000 -17.4000 65.2000 TC 65 3 271
1991013S04096 1991 2 SI MM BELLA 1991-01-28 03:00:00 TS -17.2500 65.0508 main 843 824 P____P______P_ SH081991 -17.3575 65.0575 67 1 -17.0349 65.0375 3 54 973 -17.3575 65.0575 TC 67 3 276
1991013S04096 1991 2 SI MM BELLA 1991-01-28 06:00:00 TS -17.2333 64.8667 57 971 reunion main 824 795 O____O______O_ jtwc_sh SH081991 -17.3000 64.9000 70 1 -17.1000 64.8000 3 57 971 9.90000 4.00000 -17.3000 64.9000 TC 70 4 270
1991013S04096 1991 2 SI MM BELLA 1991-01-28 09:00:00 TS -17.2475 64.6317 main 795 771 P____P______P_ SH081991 -17.3000 64.7150 72 1 -17.1426 64.4650 3 59 968 -17.3000 64.7150 TC 72 5 266
1991013S04096 1991 2 SI MM BELLA 1991-01-28 12:00:00 TS -17.2667 64.3667 62 966 reunion main 771 743 O____O______O_ jtwc_sh SH081991 -17.3000 64.5000 75 1 -17.2000 64.1000 3 62 966 9.90000 4.50000 -17.3000 64.5000 TC 75 5 268
1991013S04096 1991 2 SI MM BELLA 1991-01-28 15:00:00 TS -17.2666 64.1075 main 743 714 P____P______P_ SH081991 -17.2499 64.2725 80 1 -17.3000 63.7775 3 63 964 -17.2499 64.2725 TC 80 5 270
1991013S04096 1991 2 SI MM BELLA 1991-01-28 18:00:00 TS -17.2667 63.8333 65 962 reunion main 714 686 O____O______O_ jtwc_sh SH081991 -17.2000 64.0000 85 2 -17.4000 63.5000 3 65 962 9.90000 4.50000 -17.2000 64.0000 TC 85 6 269
1991013S04096 1991 2 SI MM BELLA 1991-01-28 21:00:00 TS -17.2759 63.5283 main 686 658 P____P______P_ SH081991 -17.1850 63.6575 90 2 -17.4575 63.2700 3 68 958 -17.1850 63.6575 TC 90 6 267
1991013S04096 1991 2 SI MM BELLA 1991-01-29 00:00:00 TS -17.3000 63.2333 72 954 reunion main 658 640 O____O______O_ jtwc_sh SH081991 -17.2000 63.3000 95 2 -17.5000 63.1000 4 72 954 9.90000 5.00000 -17.2000 63.3000 TC 95 5 262
1991013S04096 1991 2 SI MM BELLA 1991-01-29 03:00:00 TS -17.3474 62.9900 main 640 616 P____P______P_ SH081991 -17.2425 62.9850 100 3 -17.5574 63.0000 4 72 954 -17.2425 62.9850 TC 100 5 257
1991013S04096 1991 2 SI MM BELLA 1991-01-29 06:00:00 TS -17.4000 62.7667 72 954 reunion main 616 588 O____O______O_ jtwc_sh SH081991 -17.3000 62.7000 105 3 -17.6000 62.9000 4 72 954 9.90000 5.00000 -17.3000 62.7000 TC 105 4 260
1991013S04096 1991 2 SI MM BELLA 1991-01-29 09:00:00 TS -17.4208 62.5333 main 588 564 P____P______P_ SH081991 -17.3350 62.4349 112 3 -17.5925 62.7299 4 74 951 -17.3350 62.4349 TC 112 5 262
1991013S04096 1991 2 SI MM BELLA 1991-01-29 12:00:00 TS -17.4667 62.3000 77 948 reunion main 564 540 O____O______O_ jtwc_sh SH081991 -17.4000 62.2000 120 4 -17.6000 62.5000 4 77 948 9.90000 5.00000 -17.4000 62.2000 TC 120 5 251
1991013S04096 1991 2 SI MM BELLA 1991-01-29 15:00:00 TS -17.5850 62.0467 main 531 508 P____P______P_ SH081991 -17.5350 61.9701 125 4 -17.6851 62.2001 4 81 942 -17.5350 61.9701 TC 125 5 239
1991013S04096 1991 2 SI MM BELLA 1991-01-29 18:00:00 TS -17.7333 61.8333 85 936 reunion main 508 487 O____O______O_ jtwc_sh SH081991 -17.7000 61.8000 130 4 -17.8000 61.9000 4 85 936 9.90000 5.50000 -17.7000 61.8000 TC 130 4 229
1991013S04096 1991 2 SI MM BELLA 1991-01-29 21:00:00 TS -17.8691 61.6983 main 487 472 P____P______P_ SH081991 -17.8575 61.7274 130 4 -17.8925 61.6400 4 85 936 -17.8575 61.7274 TC 130 3 215
1991013S04096 1991 2 SI MM BELLA 1991-01-30 00:00:00 TS -18.0000 61.6333 85 936 reunion main 472 466 O____O______O_ jtwc_sh SH081991 -18.0000 61.7000 130 4 -18.0000 61.5000 4 85 936 9.90000 5.50000 -18.0000 61.7000 TC 130 3 201
1991013S04096 1991 2 SI MM BELLA 1991-01-30 03:00:00 TS -18.1142 61.5983 main 466 461 P____P______P_ SH081991 -18.1000 61.6275 127 4 -18.1425 61.5400 4 83 938 -18.1000 61.6275 TC 127 2 175
1991013S04096 1991 2 SI MM BELLA 1991-01-30 06:00:00 TS -18.2333 61.6333 82 941 reunion main 461 456 O____O______O_ jtwc_sh SH081991 -18.2000 61.6000 125 4 -18.3000 61.7000 4 82 941 9.90000 5.50000 -18.2000 61.6000 TC 125 3 155
1991013S04096 1991 2 SI MM BELLA 1991-01-30 09:00:00 TS -18.3733 61.7267 main 460 460 P____P______P_ SH081991 -18.3424 61.6475 122 4 -18.4350 61.8851 4 82 941 -18.3424 61.6475 TC 122 4 140
1991013S04096 1991 2 SI MM BELLA 1991-01-30 12:00:00 TS -18.5333 61.9000 82 941 reunion main 474 470 O____O______O_ jtwc_sh SH081991 -18.5000 61.8000 120 4 -18.6000 62.1000 4 82 941 9.90000 5.50000 -18.5000 61.8000 TC 120 5 129
1991013S04096 1991 2 SI MM BELLA 1991-01-30 15:00:00 TS -18.6967 62.1542 main 494 490 P____P______P_ SH081991 -18.6276 62.0776 115 4 -18.8350 62.3075 4 82 941 -18.6276 62.0776 TC 115 6 126
1991013S04096 1991 2 SI MM BELLA 1991-01-30 18:00:00 TS -18.9000 62.4333 82 941 reunion main 506 506 O____O______O_ jtwc_sh SH081991 -18.8000 62.4000 110 3 -19.1000 62.5000 4 82 941 9.90000 5.50000 -18.8000 62.4000 TC 110 7 134
1991013S04096 1991 2 SI MM BELLA 1991-01-30 21:00:00 TS -19.1633 62.6600 main 527 524 P____P______P_ SH081991 -19.0700 62.6650 110 3 -19.3499 62.6501 4 79 944 -19.0700 62.6650 TC 110 7 144
1991013S04096 1991 2 SI MM BELLA 1991-01-31 00:00:00 TS -19.4667 62.8667 77 948 reunion main 540 538 O____O______O_ jtwc_sh SH081991 -19.4000 62.9000 110 3 -19.6000 62.8000 4 77 948 9.90000 5.50000 -19.4000 62.9000 TC 110 7 147
1991013S04096 1991 2 SI MM BELLA 1991-01-31 03:00:00 TS -19.7683 63.0792 main 556 555 P____P______P_ SH081991 -19.7350 63.1225 105 3 -19.8350 62.9926 4 74 951 -19.7350 63.1225 TC 105 7 149
1991013S04096 1991 2 SI MM BELLA 1991-01-31 06:00:00 TS -20.1000 63.2667 72 954 reunion main 574 573 O____O______O_ jtwc_sh SH081991 -20.1000 63.3000 100 3 -20.1000 63.2000 4 72 954 9.90000 5.00000 -20.1000 63.3000 TC 100 8 156
1991013S04096 1991 2 SI MM BELLA 1991-01-31 09:00:00 TS -20.4683 63.4200 main 583 583 P____P______P_ SH081991 -20.4925 63.4300 92 2 -20.4200 63.4001 4 67 960 -20.4925 63.4300 TC 92 8 162
1991013S04096 1991 2 SI MM BELLA 1991-01-31 12:00:00 TS -20.8667 63.5333 62 966 reunion main 596 596 O____O______O_ jtwc_sh SH081991 -20.9000 63.5000 85 2 -20.8000 63.6000 3 62 966 9.90000 4.50000 -20.9000 63.5000 TC 85 8 167
1991013S04096 1991 2 SI MM BELLA 1991-01-31 15:00:00 TS -21.2858 63.6175 main 613 613 P____P______P_ SH081991 -21.3075 63.5151 80 1 -21.2425 63.8223 3 57 971 -21.3075 63.5151 TC 80 8 171
1991013S04096 1991 2 SI MM BELLA 1991-01-31 18:00:00 TS -21.7000 63.6667 52 976 reunion main 632 632 O____O______O_ jtwc_sh SH081991 -21.7000 63.5000 75 1 -21.7000 64.0000 3 52 976 9.90000 4.00000 -21.7000 63.5000 TC 75 8 174
1991013S04096 1991 2 SI MM BELLA 1991-01-31 21:00:00 TS -22.0691 63.7008 main 643 643 P____P______P_ SH081991 -22.0575 63.5000 70 1 -22.0924 64.1024 3 52 976 -22.0575 63.5000 TC 70 7 176
1991013S04096 1991 2 SI MM BELLA 1991-02-01 00:00:00 TS -22.4333 63.7000 52 976 reunion main 654 654 O____O______O_ jtwc_sh SH081991 -22.4000 63.5000 65 1 -22.5000 64.1000 3 52 976 9.90000 4.00000 -22.4000 63.5000 TC 65 8 0
1991013S04096 1991 2 SI MM BELLA 1991-02-01 03:00:00 TS -22.8358 63.6923 main 670 670 P____P______P_ SH081991 -22.7499 63.5372 62 0 -23.0074 64.0026 3 52 976 -22.7499 63.5372 TC 62 8 186
1991013S04096 1991 2 SI MM BELLA 1991-02-01 06:00:00 TS -23.2333 63.6000 52 976 reunion main 679 675 O____O______O_ jtwc_sh SH081991 -23.1000 63.5000 60 0 -23.5000 63.8000 3 52 976 9.90000 4.00000 -23.1000 63.5000 TC 60 8 201
1991013S04096 1991 2 SI MM BELLA 1991-02-01 09:00:00 TS -23.6009 63.3635 main 681 667 P____P______P_ SH081991 -23.4576 63.2877 57 0 -23.8876 63.5151 3 50 978 -23.4576 63.2877 TC 57 9 215
1991013S04096 1991 2 SI MM BELLA 1991-02-01 12:00:00 TS -23.9333 63.0667 48 980 reunion main 673 667 O____O______O_ jtwc_sh SH081991 -23.8000 63.0000 55 0 -24.2000 63.2000 3 48 980 9.90000 3.50000 -23.8000 63.0000 TC 55 8 219
1991013S04096 1991 2 SI MM BELLA 1991-02-01 15:00:00 TS -24.2216 62.8090 main 667 665 P____P______P_ SH081991 -24.1000 62.7424 52 0 -24.4649 62.9423 3 48 980 -24.1000 62.7424 TC 52 7 219
1991013S04096 1991 2 SI MM BELLA 1991-02-01 18:00:00 TS -24.5000 62.5667 48 980 reunion main 673 665 O____O______O_ jtwc_sh SH081991 -24.4000 62.5000 50 0 -24.7000 62.7000 3 48 980 9.90000 3.50000 -24.4000 62.5000 TC 50 7 216
1991013S04096 1991 2 SI MM BELLA 1991-02-01 21:00:00 TS -24.7991 62.3448 main 673 673 P____P______P_ SH081991 -24.7349 62.2998 50 0 -24.9275 62.4349 3 50 978 -24.7349 62.2998 TC 50 7 212
1991013S04096 1991 2 SI MM BELLA 1991-02-02 00:00:00 TS -25.1333 62.1333 52 976 reunion main 683 683 O____O______O_ jtwc_sh SH081991 -25.1000 62.1000 50 0 -25.2000 62.2000 3 52 976 9.90000 4.00000 -25.1000 62.1000 TC 50 8 209
1991013S04096 1991 2 SI MM BELLA 1991-02-02 03:00:00 TS -25.5059 61.9042 main 704 704 P____P______P_ SH081991 -25.4776 61.8425 47 0 -25.5625 62.0274 3 52 976 -25.4776 61.8425 TC 47 9 206
1991013S04096 1991 2 SI MM BELLA 1991-02-02 06:00:00 TS -25.9333 61.7000 52 976 reunion main 728 728 O____O______O_ jtwc_sh SH081991 -25.9000 61.6000 45 0 -26.0000 61.9000 3 52 976 9.90000 4.00000 -25.9000 61.6000 TC 45 10 200
1991013S04096 1991 2 SI MM BELLA 1991-02-02 09:00:00 TS -26.4033 61.5490 main 764 764 P____P______P_ SH081991 -26.3700 61.4273 45 0 -26.4700 61.7923 3 52 976 -26.3700 61.4273 TC 45 10 193
1991013S04096 1991 2 SI MM BELLA 1991-02-02 12:00:00 TS -26.9333 61.4333 52 976 reunion main 808 808 O____O______O_ jtwc_sh SH081991 -26.9000 61.3000 45 0 -27.0000 61.7000 3 52 976 9.90000 4.00000 -26.9000 61.3000 TC 45 11 189
1991013S04096 1991 2 SI MM BELLA 1991-02-02 15:00:00 TS -27.5058 61.3453 main 863 863 P____P______P_ SH081991 -27.4775 61.1997 45 0 -27.5624 61.6366 3 50 977 -27.4775 61.1997 TC 45 12 188
1991013S04096 1991 2 SI MM BELLA 1991-02-02 18:00:00 TS -28.1333 61.2333 49 979 reunion main 920 920 O____O______O_ jtwc_sh SH081991 -28.1000 61.1000 45 0 -28.2000 61.5000 3 49 979 9.90000 4.00000 -28.1000 61.1000 TC 45 13 192
1991013S04096 1991 2 SI MM BELLA 1991-02-02 21:00:00 TS -28.8068 61.0196 main 985 985 P____P______P_ SH081991 -28.7350 60.9501 45 0 -28.9503 61.1587 3 46 981 -28.7350 60.9501 TC 45 14 196
1991013S04096 1991 2 SI MM BELLA 1991-02-03 00:00:00 TS -29.5000 60.8000 44 984 reunion main 1044 1044 O____O______O_ jtwc_sh SH081991 -29.4000 60.8000 45 0 -29.7000 60.8000 3 44 984 9.90000 3.50000 -29.4000 60.8000 TC 45 14 193
1991013S04096 1991 2 SI MM BELLA 1991-02-03 03:00:00 TS -30.1766 60.6458 main 1102 1102 P____P______P_ SH081991 -30.1000 60.6702 42 0 -30.3298 60.5970 3 44 984 -30.1000 60.6702 TC 42 14 189
1991013S04096 1991 2 SI MM BELLA 1991-02-03 06:00:00 TS -30.8333 60.5667 44 984 reunion main 1162 1162 O____O______O_ jtwc_sh SH081991 -30.8000 60.6000 40 0 -30.9000 60.5000 3 44 984 9.90000 3.50000 -30.8000 60.6000 TC 40 13 185
1991013S04096 1991 2 SI MM BELLA 1991-02-03 09:00:00 TS -31.4797 60.5205 main 1228 1228 P____P______P_ SH081991 -31.4797 60.5681 40 0 -31.4798 60.4253 3 44 984 -31.4797 60.5681 TC 40 12 177
1991013S04096 1991 2 SI MM BELLA 1991-02-03 12:00:00 TS -32.0667 60.6333 44 984 reunion main 1293 1293 O____O______O_ jtwc_sh SH081991 -32.1000 60.7000 40 0 -32.0000 60.5000 3 44 984 9.90000 3.50000 -32.1000 60.7000 TC 40 12 160
1991013S04096 1991 2 SI MM BELLA 1991-02-03 15:00:00 TS -32.5584 60.9798 main 1359 1359 P____P______P_ SH081991 -32.6227 61.0823 37 0 -32.4300 60.7749 3 41 986 -32.6227 61.0823 TC 37 12 143
1991013S04096 1991 2 SI MM BELLA 1991-02-03 18:00:00 TS -33.0000 61.4667 39 988 reunion main 1419 1419 O____O______O_ jtwc_sh SH081991 -33.1000 61.6000 35 0 -32.8000 61.2000 2 39 988 9.90000 3.00000 -33.1000 61.6000 TC 35 12 138
1991013S04096 1991 2 SI MM BELLA 1991-02-03 21:00:00 TS -33.4622 61.9371 main 1486 1486 P____P______P_ SH081991 -33.6147 62.0779 35 0 -33.1572 61.6555 2 37 989 -33.6147 62.0779 TC 35 12 137
1991013S04096 1991 2 SI MM BELLA 1991-02-04 00:00:00 TS -33.9000 62.4667 36 991 reunion main 1550 1550 O____O______O_ jtwc_sh SH081991 -34.1000 62.6000 35 0 -33.5000 62.2000 2 36 991 9.90000 3.00000 -34.1000 62.6000 TC 35 12 132
1991013S04096 1991 2 SI MM BELLA 1991-02-04 03:00:00 TS -34.2856 63.0542 main 1616 1616 P____P______P_ SH081991 -34.5148 63.1783 32 -1 -33.8271 62.8062 2 36 991 -34.5148 63.1783 TC 32 13 128
1991013S04096 1991 2 SI MM BELLA 1991-02-04 06:00:00 TS -34.7091 63.7182 36 991 reunion main 1625 1556 O____O______O_ jtwc_sh SH081991 -34.9000 63.8000 30 -1 -34.2000 63.5000 2 36 991 9.90000 3.00000 -34.9000 63.8000 TC 30 14 130
1991013S04096 1991 2 SI MM BELLA 1991-02-04 09:00:00 TS -35.1977 64.3910 main 1556 1500 P____P______P_ SH081991 -35.3294 64.4200 30 -1 -34.6712 64.2748 2 993 -35.3294 64.4200 TC 30 15 129
1991013S04096 1991 2 SI MM BELLA 1991-02-04 12:00:00 MX -35.6286 65.1000 995 reunion main 1500 1456 O____O______O_ jtwc_sh SH081991 -35.7000 65.1000 30 -1 -35.2000 65.1000 5 995 9.90000 -35.7000 65.1000 TC 30 14 122
1991013S04096 1991 2 SI MM BELLA 1991-02-04 15:00:00 TS -35.9414 65.8723 main 1455 1423 P___________P_ SH081991 -35.9414 65.8723 27 -1 5 -35.9414 65.8723 TC 27 14 110
1991013S04096 1991 2 SI MM BELLA 1991-02-04 18:00:00 TS -36.1000 66.7000 main 1423 O___________O_ jtwc_sh SH081991 -36.1000 66.7000 25 -1 -36.1000 66.7000 TC 25 14 103

About IBTrACS Database

This database is a web-friendly format of International Best Track Archive for Climate Stewardship (IBTrACS), a global best track data archive curated by NOAA dating back to 1842.

Updated: 2021-10-27